^^
Station Historical Data
Daily Summary for June 22, 2017 Units:  English    Metric   Both
« Previous Day
Next Day »
Daily Weekly Monthly Yearly Custom
  High: Low: Average:
Temperature: 86.9 °F 60.5 °F 74.7 °F
Dew Point: 71.4 °F 58.5 °F 64.2 °F
Humidity: 94 % 48 % 72 %
Wind Speed: 8.4 mph 0.0 mph 1 mph
Wind Gust: 17.3 mph - -
Wind:- - SW
Pressure: 30.04 in 29.90 in -
Precipitation: 0.00 in    
Historical Graphs
 
 
Tabular Data for June 22, 2017
Time Temperature Dew Point Pressure Wind Wind Speed Wind Gust Humidity Rainfall Rate (Hourly) solar Conditions
00:03 66.4 °F 61.8 °F 29.97 in Calm     85 % 0.00 in 0.0 W/m2 RA
00:07 66.1 °F 61.8 °F 29.97 in Calm     86 % 0.00 in 0.0 W/m2 RA
00:13 66.1 °F 61.8 °F 29.97 in Calm     86 % 0.00 in 0.0 W/m2 CLR
00:18 65.9 °F 61.6 °F 29.97 in Calm     86 % 0.00 in 0.0 W/m2 CLR
00:23 65.7 °F 61.7 °F 29.97 in Calm     87 % 0.00 in 0.0 W/m2 CLR
00:28 65.6 °F 61.6 °F 29.97 in Calm     87 % 0.00 in 0.0 W/m2 CLR
00:33 65.4 °F 61.4 °F 29.97 in Calm     87 % 0.00 in 0.0 W/m2 CLR
00:38 65.4 °F 61.8 °F 29.97 in Calm     88 % 0.00 in 0.0 W/m2 CLR
00:43 65.6 °F 61.9 °F 29.97 in Calm     88 % 0.00 in 0.0 W/m2 CLR
00:48 65.5 °F 61.9 °F 29.97 in Calm     88 % 0.00 in 0.0 W/m2 CLR
00:53 65.4 °F 61.8 °F 29.98 in Calm     88 % 0.00 in 0.0 W/m2 CLR
00:58 65.4 °F 61.8 °F 29.98 in Calm     88 % 0.00 in 0.0 W/m2 CLR
01:03 65.4 °F 61.8 °F 29.98 in Calm     88 % 0.00 in 0.0 W/m2 CLR
01:08 65.6 °F 61.9 °F 29.98 in Calm     88 % 0.00 in 0.0 W/m2 CLR
01:13 65.5 °F 61.9 °F 29.98 in Calm     88 % 0.00 in 0.0 W/m2 CLR
01:18 65.4 °F 61.8 °F 29.98 in Calm     88 % 0.00 in 0.0 W/m2 CLR
01:23 65.3 °F 61.7 °F 29.98 in Calm   2.3 mph 88 % 0.00 in 0.0 W/m2 CLR
01:24 65.3 °F 61.7 °F 29.98 in Calm   2.3 mph 88 % 0.00 in 0.0 W/m2 CLR
01:29 65.4 °F 61.8 °F 29.98 in Calm   2.3 mph 88 % 0.00 in 0.0 W/m2 CLR
01:34 65.4 °F 61.8 °F 29.98 in Calm     88 % 0.00 in 0.0 W/m2 CLR
01:39 65.3 °F 61.7 °F 29.98 in Calm     88 % 0.00 in 0.0 W/m2 CLR
01:44 65.3 °F 61.7 °F 29.98 in Calm     88 % 0.00 in 0.0 W/m2 CLR
01:49 65.1 °F 61.5 °F 29.98 in Calm     88 % 0.00 in 0.0 W/m2 CLR
01:54 64.9 °F 61.6 °F 29.98 in Calm     89 % 0.00 in 0.0 W/m2 CLR
01:59 64.8 °F 61.5 °F 29.98 in Calm     89 % 0.00 in 0.0 W/m2 CLR
02:04 64.7 °F 61.4 °F 29.98 in Calm     89 % 0.00 in 0.0 W/m2 CLR
02:09 64.5 °F 61.2 °F 29.98 in Calm     89 % 0.00 in 0.0 W/m2 CLR
02:14 64.3 °F 61.3 °F 29.98 in Calm     90 % 0.00 in 0.0 W/m2 CLR
02:19 64.1 °F 60.8 °F 29.98 in Calm     89 % 0.00 in 0.0 W/m2 CLR
02:24 64.0 °F 61.0 °F 29.98 in Calm     90 % 0.00 in 0.0 W/m2 CLR
02:29 63.9 °F 60.9 °F 29.98 in Calm     90 % 0.00 in 0.0 W/m2 CLR
02:34 63.7 °F 60.7 °F 29.98 in Calm     90 % 0.00 in 0.0 W/m2 CLR
02:39 63.5 °F 60.5 °F 29.98 in Calm     90 % 0.00 in 0.0 W/m2 CLR
02:44 63.5 °F 60.8 °F 29.98 in Calm     91 % 0.00 in 0.0 W/m2 CLR
02:49 63.3 °F 60.6 °F 29.98 in Calm     91 % 0.00 in 0.0 W/m2 CLR
02:54 63.2 °F 60.5 °F 29.98 in Calm     91 % 0.00 in 0.0 W/m2 CLR
02:59 63.2 °F 60.5 °F 29.98 in Calm     91 % 0.00 in 0.0 W/m2 CLR
03:04 63.2 °F 60.5 °F 29.98 in Calm     91 % 0.00 in 0.0 W/m2 CLR
03:10 63.2 °F 60.5 °F 29.99 in Calm     91 % 0.00 in 0.0 W/m2 CLR
03:15 63.0 °F 60.3 °F 29.99 in Calm     91 % 0.00 in 0.0 W/m2 CLR
03:20 62.8 °F 60.1 °F 29.99 in Calm     91 % 0.00 in 0.0 W/m2 CLR
03:25 62.6 °F 60.2 °F 29.98 in Calm     92 % 0.00 in 0.0 W/m2 CLR
03:30 62.6 °F 60.2 °F 29.98 in Calm     92 % 0.00 in 0.0 W/m2 CLR
03:35 62.3 °F 59.9 °F 29.99 in Calm     92 % 0.00 in 0.0 W/m2 CLR
03:40 62.1 °F 59.7 °F 29.99 in Calm     92 % 0.00 in 0.0 W/m2 CLR
03:45 61.9 °F 59.5 °F 29.99 in Calm     92 % 0.00 in 0.0 W/m2 CLR
03:50 62.0 °F 59.6 °F 29.98 in Calm     92 % 0.00 in 0.0 W/m2 CLR
03:55 61.9 °F 59.5 °F 29.98 in Calm     92 % 0.00 in 0.0 W/m2 CLR
04:00 61.6 °F 59.3 °F 29.99 in Calm     92 % 0.00 in 0.0 W/m2 CLR
04:05 62.0 °F 60.0 °F 29.99 in Calm     93 % 0.00 in 0.0 W/m2 CLR
04:10 62.1 °F 60.1 °F 29.99 in Calm     93 % 0.00 in 0.0 W/m2 CLR
04:15 61.9 °F 59.5 °F 29.99 in Calm     92 % 0.00 in 0.0 W/m2 CLR
04:20 61.8 °F 59.8 °F 29.99 in Calm     93 % 0.00 in 0.0 W/m2 CLR
04:25 61.4 °F 59.4 °F 29.99 in SW 0.2 mph 3.5 mph 93 % 0.00 in 0.0 W/m2 CLR
04:30 61.3 °F 59.3 °F 29.99 in Calm   3.5 mph 93 % 0.00 in 0.0 W/m2 CLR
04:35 61.2 °F 59.2 °F 29.99 in Calm   3.5 mph 93 % 0.00 in 0.0 W/m2 CLR
04:40 61.2 °F 59.2 °F 29.99 in Calm     93 % 0.00 in 0.0 W/m2 CLR
04:45 61.2 °F 59.2 °F 29.99 in Calm     93 % 0.00 in 0.0 W/m2 CLR
04:50 60.9 °F 58.9 °F 29.99 in Calm     93 % 0.00 in 0.0 W/m2 CLR
04:55 60.8 °F 58.8 °F 30.00 in Calm     93 % 0.00 in 0.0 W/m2 CLR
05:00 60.7 °F 58.7 °F 29.99 in Calm     93 % 0.00 in 0.0 W/m2 CLR
05:05 60.8 °F 58.8 °F 30.00 in Calm     93 % 0.00 in 0.0 W/m2 CLR
05:10 60.8 °F 58.8 °F 30.00 in Calm     93 % 0.00 in 0.0 W/m2 CLR
05:15 60.6 °F 58.6 °F 30.00 in Calm     93 % 0.00 in 0.0 W/m2 CLR
05:20 60.6 °F 58.6 °F 30.00 in Calm     93 % 0.00 in 0.0 W/m2 CLR
05:25 60.5 °F 58.5 °F 30.00 in Calm     93 % 0.00 in 0.0 W/m2 CLR
05:30 60.5 °F 58.5 °F 30.00 in Calm     93 % 0.00 in 0.0 W/m2 CLR
05:36 60.6 °F 58.6 °F 30.00 in Calm     93 % 0.00 in 0.0 W/m2 CLR
05:41 60.6 °F 58.9 °F 30.00 in Calm     94 % 0.00 in 7.0 W/m2 CLR
05:46 60.8 °F 59.1 °F 30.01 in Calm     94 % 0.00 in 14.0 W/m2 CLR
05:51 60.9 °F 59.2 °F 30.01 in Calm     94 % 0.00 in 16.0 W/m2 CLR
05:56 60.8 °F 59.1 °F 30.01 in Calm     94 % 0.00 in 18.0 W/m2 CLR
06:01 60.8 °F 59.1 °F 30.01 in Calm     94 % 0.00 in 23.0 W/m2 CLR
06:06 60.9 °F 59.2 °F 30.01 in Calm     94 % 0.00 in 25.0 W/m2 CLR
06:11 61.1 °F 59.4 °F 30.02 in Calm     94 % 0.00 in 21.0 W/m2 CLR
06:16 61.2 °F 59.5 °F 30.01 in Calm     94 % 0.00 in 19.0 W/m2 CLR
06:21 61.4 °F 59.7 °F 30.01 in Calm     94 % 0.00 in 23.0 W/m2 CLR
06:26 61.3 °F 59.3 °F 30.02 in Calm   1.2 mph 93 % 0.00 in 30.0 W/m2 CLR
06:31 61.1 °F 59.1 °F 30.02 in Calm   1.2 mph 93 % 0.00 in 30.0 W/m2 CLR
06:36 61.1 °F 59.1 °F 30.02 in Calm   1.2 mph 93 % 0.00 in 32.0 W/m2 CLR
06:41 61.2 °F 59.2 °F 30.02 in Calm     93 % 0.00 in 32.0 W/m2 CLR
06:46 61.5 °F 59.8 °F 30.02 in Calm     94 % 0.00 in 32.0 W/m2 CLR
06:51 61.8 °F 59.8 °F 30.02 in Calm     93 % 0.00 in 33.0 W/m2 CLR
06:56 62.0 °F 60.0 °F 30.02 in Calm     93 % 0.00 in 37.0 W/m2 CLR
07:01 62.3 °F 60.2 °F 30.02 in Calm     93 % 0.00 in 37.0 W/m2 FEW
07:06 62.8 °F 60.7 °F 30.03 in Calm     93 % 0.00 in 33.0 W/m2 FEW
07:11 62.9 °F 60.5 °F 30.03 in Calm     92 % 0.00 in 37.0 W/m2 FEW
07:16 63.1 °F 60.7 °F 30.03 in Calm     92 % 0.00 in 42.0 W/m2 FEW
07:21 63.4 °F 61.0 °F 30.03 in Calm     92 % 0.00 in 42.0 W/m2 FEW
07:26 63.8 °F 61.1 °F 30.03 in Calm     91 % 0.00 in 39.0 W/m2 FEW
07:31 64.2 °F 61.2 °F 30.03 in Calm     90 % 0.00 in 40.0 W/m2 FEW
07:36 64.4 °F 61.4 °F 30.03 in Calm     90 % 0.00 in 40.0 W/m2 FEW
07:41 64.6 °F 61.3 °F 30.04 in Calm     89 % 0.00 in 40.0 W/m2 FEW
07:46 64.8 °F 61.5 °F 30.04 in Calm     89 % 0.00 in 44.0 W/m2 FEW
07:51 64.9 °F 61.6 °F 30.04 in Calm     89 % 0.00 in 47.0 W/m2 FEW
07:56 65.1 °F 61.8 °F 30.04 in Calm     89 % 0.00 in 46.0 W/m2 FEW
08:01 65.2 °F 61.6 °F 30.03 in Calm     88 % 0.00 in 44.0 W/m2 CLR
08:06 65.4 °F 61.8 °F 30.03 in Calm     88 % 0.00 in 49.0 W/m2 CLR
08:11 65.7 °F 62.0 °F 30.03 in Calm     88 % 0.00 in 56.0 W/m2 CLR
08:16 66.3 °F 62.6 °F 30.03 in Calm     88 % 0.00 in 56.0 W/m2 CLR
08:21 66.7 °F 62.4 °F 30.03 in Calm     86 % 0.00 in 58.0 W/m2 CLR
08:24 66.7 °F 62.4 °F 30.03 in Calm     86 % 0.00 in 58.0 W/m2 CLR
08:29 67.2 °F 62.5 °F 30.03 in Calm     85 % 0.00 in 58.0 W/m2 CLR
08:34 67.4 °F 62.4 °F 30.03 in Calm     84 % 0.00 in 58.0 W/m2 CLR
08:39 68.0 °F 62.6 °F 30.03 in Calm   1.2 mph 83 % 0.00 in 60.0 W/m2 CLR
08:45 68.0 °F 62.3 °F 30.03 in Calm   1.2 mph 82 % 0.00 in 60.0 W/m2 CLR
08:50 68.3 °F 62.3 °F 30.03 in Calm     81 % 0.00 in 60.0 W/m2 CLR
08:55 69.0 °F 62.9 °F 30.03 in Calm     81 % 0.00 in 62.0 W/m2 CLR
09:00 69.3 °F 62.9 °F 30.03 in Calm   2.3 mph 80 % 0.00 in 72.0 W/m2 CLR
09:05 70.1 °F 63.6 °F 30.02 in Calm   2.3 mph 80 % 0.00 in 79.0 W/m2 CLR
09:10 70.2 °F 62.7 °F 30.02 in Calm   2.0 mph 77 % 0.00 in 107.0 W/m2 CLR
09:15 70.7 °F 62.4 °F 30.02 in Calm   2.3 mph 75 % 0.00 in 178.0 W/m2 CLR
09:20 71.3 °F 63.0 °F 30.02 in Calm   2.3 mph 75 % 0.00 in 606.0 W/m2 CLR
09:25 72.0 °F 63.3 °F 30.02 in Calm     74 % 0.00 in 605.0 W/m2 CLR
09:30 72.6 °F 63.1 °F 30.02 in Calm   1.2 mph 72 % 0.00 in 633.0 W/m2 CLR
09:35 72.5 °F 62.6 °F 30.02 in Calm   1.2 mph 71 % 0.00 in 654.0 W/m2 CLR
09:40 73.0 °F 63.4 °F 30.01 in Calm     72 % 0.00 in 661.0 W/m2 CLR
09:45 73.1 °F 62.7 °F 30.01 in Calm     70 % 0.00 in 668.0 W/m2 CLR
09:50 73.5 °F 62.7 °F 30.01 in Calm     69 % 0.00 in 689.0 W/m2 CLR
09:55 73.9 °F 62.2 °F 30.00 in Calm   1.2 mph 67 % 0.00 in 707.0 W/m2 CLR
10:01 74.2 °F 62.5 °F 30.01 in Calm   1.2 mph 67 % 0.00 in 719.0 W/m2 CLR
10:06 74.7 °F 63.4 °F 30.01 in SSE 0.1 mph 1.2 mph 68 % 0.00 in 733.0 W/m2 CLR
10:11 75.0 °F 63.7 °F 30.00 in ESE 0.7 mph 3.5 mph 68 % 0.00 in 731.0 W/m2 CLR
10:16 75.2 °F 63.5 °F 30.01 in Calm   3.5 mph 67 % 0.00 in 745.0 W/m2 CLR
10:21 75.4 °F 62.4 °F 30.01 in ESE 0.5 mph 3.5 mph 64 % 0.00 in 768.0 W/m2 CLR
10:26 75.8 °F 63.2 °F 30.01 in Calm   2.3 mph 65 % 0.00 in 708.0 W/m2 CLR
10:31 76.3 °F 61.9 °F 30.00 in Calm   2.3 mph 61 % 0.00 in 789.0 W/m2 CLR
10:36 76.5 °F 62.0 °F 30.01 in ENE 0.2 mph 1.2 mph 61 % 0.00 in 803.0 W/m2 CLR
10:41 77.1 °F 62.6 °F 30.01 in SSW 2.8 mph 3.5 mph 61 % 0.00 in 814.0 W/m2 CLR
10:46 76.9 °F 61.5 °F 30.01 in SW 0.9 mph 3.5 mph 59 % 0.00 in 823.0 W/m2 CLR
10:51 77.5 °F 62.0 °F 30.01 in SW 3.0 mph 3.5 mph 59 % 0.00 in 826.0 W/m2 CLR
10:56 77.2 °F 62.2 °F 30.00 in West 0.2 mph 3.5 mph 60 % 0.00 in 837.0 W/m2 CLR
11:01 77.9 °F 62.4 °F 30.00 in SSW 0.7 mph 5.8 mph 59 % 0.00 in 849.0 W/m2 CLR
11:06 77.8 °F 62.3 °F 30.00 in Calm   5.8 mph 59 % 0.00 in 851.0 W/m2 CLR
11:11 77.9 °F 61.9 °F 30.00 in SE 0.6 mph 5.8 mph 58 % 0.00 in 860.0 W/m2 CLR
11:16 78.2 °F 62.2 °F 30.00 in Calm   3.5 mph 58 % 0.00 in 874.0 W/m2 CLR
11:21 79.1 °F 62.6 °F 30.00 in SSE 0.2 mph 3.5 mph 57 % 0.00 in 881.0 W/m2 CLR
11:26 80.0 °F 61.3 °F 30.00 in SW 3.6 mph 6.9 mph 53 % 0.00 in 895.0 W/m2 CLR
11:31 79.8 °F 61.1 °F 30.00 in SSW 2.8 mph 6.9 mph 53 % 0.00 in 902.0 W/m2 CLR
11:36 79.6 °F 61.0 °F 30.00 in SW 2.7 mph 9.2 mph 53 % 0.00 in 904.0 W/m2 CLR
11:41 80.0 °F 60.8 °F 30.00 in WSW 2.9 mph 9.2 mph 52 % 0.00 in 921.0 W/m2 CLR
11:46 80.1 °F 60.3 °F 30.00 in SW 4.8 mph 11.5 mph 51 % 0.00 in 925.0 W/m2 CLR
11:51 80.0 °F 60.8 °F 30.00 in SSW 0.8 mph 11.5 mph 52 % 0.00 in 925.0 W/m2 CLR
11:56 81.0 °F 61.2 °F 29.99 in South 0.2 mph 5.8 mph 51 % 0.00 in 932.0 W/m2 CLR
12:01 81.0 °F 61.2 °F 30.00 in WSW 3.8 mph 8.1 mph 51 % 0.00 in 942.0 W/m2 CLR
12:06 80.5 °F 61.8 °F 30.00 in SW 3.2 mph 8.1 mph 53 % 0.00 in 926.0 W/m2 CLR
12:11 80.8 °F 61.5 °F 30.00 in WSW 3.7 mph 9.2 mph 52 % 0.00 in 947.0 W/m2 CLR
12:16 80.9 °F 61.6 °F 29.99 in West 3.5 mph 9.2 mph 52 % 0.00 in 933.0 W/m2 CLR
12:21 81.0 °F 61.7 °F 29.99 in SW 2.5 mph 11.5 mph 52 % 0.00 in 947.0 W/m2 CLR
12:26 81.7 °F 62.4 °F 29.99 in SW 3.8 mph 11.5 mph 52 % 0.00 in 954.0 W/m2 CLR
12:31 81.6 °F 61.7 °F 29.99 in WSW 1.9 mph 10.4 mph 51 % 0.00 in 963.0 W/m2 CLR
12:36 81.3 °F 62.0 °F 29.99 in SW 0.5 mph 10.4 mph 52 % 0.00 in 967.0 W/m2 CLR
12:41 82.1 °F 62.7 °F 29.99 in WSW 5.9 mph 11.5 mph 52 % 0.00 in 963.0 W/m2 CLR
12:46 81.8 °F 62.5 °F 29.99 in South 4.0 mph 11.5 mph 52 % 0.00 in 970.0 W/m2 CLR
12:51 82.2 °F 63.4 °F 29.99 in WSW 6.3 mph 11.5 mph 53 % 0.00 in 970.0 W/m2 CLR
12:56 81.6 °F 62.8 °F 29.99 in Calm   11.5 mph 53 % 0.00 in 965.0 W/m2 CLR
13:01 82.0 °F 62.6 °F 29.99 in SSW 2.2 mph 11.5 mph 52 % 0.00 in 976.0 W/m2 FEW
13:06 82.8 °F 63.4 °F 29.99 in SSW 6.0 mph 10.4 mph 52 % 0.00 in 970.0 W/m2 FEW
13:11 82.7 °F 63.8 °F 29.98 in South 2.0 mph 11.5 mph 53 % 0.00 in 967.0 W/m2 FEW
13:16 82.5 °F 63.6 °F 29.98 in SW 2.9 mph 11.5 mph 53 % 0.00 in 974.0 W/m2 FEW
13:21 82.9 °F 64.0 °F 29.98 in SW 3.5 mph 9.2 mph 53 % 0.00 in 963.0 W/m2 FEW
13:26 83.0 °F 64.1 °F 29.97 in SSW 5.1 mph 9.2 mph 53 % 0.00 in 967.0 W/m2 FEW
13:31 83.6 °F 64.7 °F 29.97 in West 6.1 mph 12.7 mph 53 % 0.00 in 967.0 W/m2 FEW
13:36 83.2 °F 64.8 °F 29.97 in West 2.4 mph 12.7 mph 54 % 0.00 in 953.0 W/m2 FEW
13:41 83.2 °F 65.4 °F 29.97 in SW 5.8 mph 12.7 mph 55 % 0.00 in 979.0 W/m2 FEW
13:46 83.6 °F 65.7 °F 29.96 in SSW 1.5 mph 11.5 mph 55 % 0.00 in 1044.0 W/m2 FEW
13:48 83.5 °F 65.6 °F 29.96 in NW 0.2 mph 11.5 mph 55 % 0.00 in 1042.0 W/m2 FEW
13:53 84.2 °F 66.3 °F 29.96 in SSW 5.3 mph 8.1 mph 55 % 0.00 in 1060.0 W/m2 FEW
13:58 84.0 °F 65.6 °F 29.96 in Calm   9.2 mph 54 % 0.00 in 1114.0 W/m2 FEW
14:03 84.6 °F 65.6 °F 29.96 in West 4.5 mph 11.5 mph 53 % 0.00 in 1018.0 W/m2 FEW
14:08 85.5 °F 65.3 °F 29.96 in WNW 2.5 mph 11.5 mph 51 % 0.00 in 977.0 W/m2 FEW
14:13 85.8 °F 65.6 °F 29.96 in WSW 5.0 mph 17.3 mph 51 % 0.00 in 977.0 W/m2 FEW
14:19 84.6 °F 65.0 °F 29.96 in SW 1.9 mph 17.3 mph 52 % 0.00 in 981.0 W/m2 FEW
14:24 84.7 °F 64.6 °F 29.96 in WSW 8.4 mph 12.7 mph 51 % 0.00 in 972.0 W/m2 FEW
14:29 84.8 °F 64.7 °F 29.96 in SW 4.1 mph 13.8 mph 51 % 0.00 in 949.0 W/m2 FEW
14:34 84.6 °F 64.5 °F 29.96 in SW 0.6 mph 13.8 mph 51 % 0.00 in 933.0 W/m2 FEW
14:39 85.2 °F 65.6 °F 29.96 in SSW 3.9 mph 10.4 mph 52 % 0.00 in 928.0 W/m2 FEW
14:44 85.9 °F 65.1 °F 29.96 in NW 0.3 mph 10.4 mph 50 % 0.00 in 942.0 W/m2 FEW
14:49 85.1 °F 64.9 °F 29.95 in WSW 2.5 mph 9.2 mph 51 % 0.00 in 868.0 W/m2 FEW
14:54 85.2 °F 66.1 °F 29.95 in WSW 0.2 mph 9.2 mph 53 % 0.00 in 930.0 W/m2 FEW
14:59 86.3 °F 64.9 °F 29.95 in WNW 1.4 mph 11.5 mph 49 % 0.00 in 919.0 W/m2 FEW
15:04 86.1 °F 65.3 °F 29.95 in SSW 6.0 mph 12.7 mph 50 % 0.00 in 911.0 W/m2 CLR
15:09 85.7 °F 66.0 °F 29.95 in West 0.6 mph 12.7 mph 52 % 0.00 in 909.0 W/m2 CLR
15:14 86.3 °F 66.0 °F 29.95 in SSW 0.8 mph 11.5 mph 51 % 0.00 in 856.0 W/m2 CLR
15:19 86.1 °F 65.3 °F 29.94 in SW 4.5 mph 12.7 mph 50 % 0.00 in 853.0 W/m2 CLR
15:24 85.8 °F 65.0 °F 29.94 in WSW 2.9 mph 12.7 mph 50 % 0.00 in 877.0 W/m2 CLR
15:29 85.4 °F 65.2 °F 29.94 in SSW 1.6 mph 10.4 mph 51 % 0.00 in 236.0 W/m2 CLR
15:34 86.0 °F 65.8 °F 29.93 in SSW 6.7 mph 8.1 mph 51 % 0.00 in 728.0 W/m2 CLR
15:39 86.4 °F 64.4 °F 29.93 in SW 5.3 mph 11.5 mph 48 % 0.00 in 784.0 W/m2 CLR
15:44 86.0 °F 65.2 °F 29.93 in SW 2.9 mph 11.5 mph 50 % 0.00 in 729.0 W/m2 CLR
15:49 85.9 °F 65.1 °F 29.93 in WSW 1.6 mph 11.5 mph 50 % 0.00 in 729.0 W/m2 CLR
15:54 85.9 °F 65.1 °F 29.94 in SSW 5.6 mph 9.2 mph 50 % 0.00 in 784.0 W/m2 CLR
15:59 86.3 °F 64.9 °F 29.93 in South 1.7 mph 11.5 mph 49 % 0.00 in 160.0 W/m2 CLR
16:04 85.8 °F 65.0 °F 29.93 in SW 3.9 mph 11.5 mph 50 % 0.00 in 740.0 W/m2 FEW
16:09 86.4 °F 65.6 °F 29.93 in SW 2.5 mph 11.5 mph 50 % 0.00 in 708.0 W/m2 FEW
16:14 86.3 °F 65.5 °F 29.93 in WSW 0.3 mph 11.5 mph 50 % 0.00 in 751.0 W/m2 FEW
16:19 86.4 °F 65.6 °F 29.93 in SSW 2.7 mph 11.5 mph 50 % 0.00 in 642.0 W/m2 FEW
16:24 86.6 °F 65.2 °F 29.93 in SSW 1.3 mph 11.5 mph 49 % 0.00 in 615.0 W/m2 FEW
16:29 86.4 °F 65.6 °F 29.92 in WSW 1.7 mph 11.5 mph 50 % 0.00 in 185.0 W/m2 FEW
16:34 86.3 °F 65.5 °F 29.92 in WSW 1.8 mph 8.1 mph 50 % 0.00 in 628.0 W/m2 FEW
16:39 86.7 °F 66.4 °F 29.92 in SW 3.6 mph 8.1 mph 51 % 0.00 in 540.0 W/m2 FEW
16:44 86.9 °F 65.4 °F 29.92 in SSW 2.9 mph 9.2 mph 49 % 0.00 in 492.0 W/m2 FEW
16:49 86.4 °F 66.1 °F 29.91 in West 1.3 mph 9.2 mph 51 % 0.00 in 415.0 W/m2 FEW
16:54 86.6 °F 66.3 °F 29.91 in West 3.0 mph 10.4 mph 51 % 0.00 in 334.0 W/m2 FEW
16:59 85.9 °F 65.7 °F 29.91 in West 4.8 mph 10.4 mph 51 % 0.00 in 359.0 W/m2 FEW
17:01 85.8 °F 66.1 °F 29.91 in South 3.9 mph 10.4 mph 52 % 0.00 in 348.0 W/m2 BKN
17:06 86.1 °F 66.4 °F 29.90 in SW 2.8 mph 9.2 mph 52 % 0.00 in 396.0 W/m2 BKN
17:11 86.0 °F 65.8 °F 29.90 in SSW 1.4 mph 8.1 mph 51 % 0.00 in 378.0 W/m2 BKN
17:16 86.0 °F 66.9 °F 29.90 in West 1.7 mph 8.1 mph 53 % 0.00 in 313.0 W/m2 BKN
17:21 86.3 °F 66.6 °F 29.90 in SW 4.1 mph 8.1 mph 52 % 0.00 in 327.0 W/m2 BKN
17:26 85.8 °F 66.7 °F 29.90 in SSW 4.1 mph 11.5 mph 53 % 0.00 in 295.0 W/m2 BKN
17:31 85.3 °F 66.2 °F 29.90 in SW 4.3 mph 11.5 mph 53 % 0.00 in 265.0 W/m2 BKN
17:36 85.5 °F 67.0 °F 29.90 in WSW 4.1 mph 11.5 mph 54 % 0.00 in 260.0 W/m2 BKN
17:41 85.6 °F 67.6 °F 29.90 in Calm   8.1 mph 55 % 0.00 in 253.0 W/m2 BKN
17:46 85.5 °F 67.5 °F 29.90 in WSW 3.6 mph 9.2 mph 55 % 0.00 in 236.0 W/m2 BKN
17:51 85.2 °F 67.2 °F 29.90 in West 1.4 mph 10.4 mph 55 % 0.00 in 258.0 W/m2 BKN
17:56 85.3 °F 67.3 °F 29.90 in SW 2.3 mph 10.4 mph 55 % 0.00 in 236.0 W/m2 BKN
18:00 85.4 °F 67.9 °F 29.91 in WSW 2.4 mph 5.8 mph 56 % 0.00 in 229.0 W/m2 BKN
18:05 85.2 °F 67.2 °F 29.91 in West 0.1 mph 8.1 mph 55 % 0.00 in 218.0 W/m2 FEW
18:10 85.1 °F 67.6 °F 29.91 in WSW 1.5 mph 8.1 mph 56 % 0.00 in 227.0 W/m2 FEW
18:15 84.8 °F 67.4 °F 29.91 in WSW 1.5 mph 6.9 mph 56 % 0.00 in 236.0 W/m2 FEW
18:20 84.8 °F 67.4 °F 29.91 in SW 2.5 mph 6.9 mph 56 % 0.00 in 190.0 W/m2 FEW
18:21 84.8 °F 67.4 °F 29.91 in SW 3.2 mph 6.9 mph 56 % 0.00 in 185.0 W/m2 FEW
18:26 84.8 °F 67.9 °F 29.91 in Calm   6.9 mph 57 % 0.00 in 167.0 W/m2 FEW
18:32 84.9 °F 68.0 °F 29.91 in Calm   6.9 mph 57 % 0.00 in 156.0 W/m2 FEW
18:37 85.0 °F 68.1 °F 29.91 in Calm   3.5 mph 57 % 0.00 in 144.0 W/m2 FEW
18:42 84.8 °F 68.4 °F 29.91 in Calm   3.5 mph 58 % 0.00 in 128.0 W/m2 FEW
18:47 84.7 °F 67.8 °F 29.91 in SSW 2.7 mph 5.8 mph 57 % 0.00 in 114.0 W/m2 FEW
18:52 84.6 °F 68.2 °F 29.91 in SW 0.6 mph 5.8 mph 58 % 0.00 in 100.0 W/m2 FEW
18:57 84.4 °F 68.0 °F 29.90 in SW 0.3 mph 5.8 mph 58 % 0.00 in 88.0 W/m2 FEW
19:02 84.2 °F 68.3 °F 29.90 in South 0.4 mph 5.8 mph 59 % 0.00 in 81.0 W/m2 CLR
19:07 84.0 °F 68.6 °F 29.90 in SSW 1.0 mph 5.8 mph 60 % 0.00 in 77.0 W/m2 CLR
19:12 83.8 °F 68.9 °F 29.90 in Calm   5.8 mph 61 % 0.00 in 74.0 W/m2 CLR
19:17 83.7 °F 68.8 °F 29.90 in Calm   4.6 mph 61 % 0.00 in 70.0 W/m2 CLR
19:22 83.6 °F 68.7 °F 29.91 in Calm   3.5 mph 61 % 0.00 in 62.0 W/m2 CLR
19:27 83.5 °F 69.1 °F 29.91 in Calm   3.5 mph 62 % 0.00 in 56.0 W/m2 CLR
19:32 83.4 °F 69.0 °F 29.91 in Calm   1.2 mph 62 % 0.00 in 51.0 W/m2 CLR
19:37 83.1 °F 69.2 °F 29.91 in Calm   3.5 mph 63 % 0.00 in 39.0 W/m2 CLR
19:42 83.2 °F 69.3 °F 29.91 in Calm   3.5 mph 63 % 0.00 in 32.0 W/m2 CLR
19:47 83.1 °F 69.2 °F 29.91 in Calm   3.5 mph 63 % 0.00 in 26.0 W/m2 CLR
19:52 82.9 °F 69.0 °F 29.91 in Calm   3.5 mph 63 % 0.00 in 19.0 W/m2 CLR
19:57 82.7 °F 68.8 °F 29.91 in Calm   4.6 mph 63 % 0.00 in 14.0 W/m2 CLR
20:02 82.6 °F 69.2 °F 29.91 in SSW 1.4 mph 4.6 mph 64 % 0.00 in 12.0 W/m2 CLR
20:07 82.4 °F 69.0 °F 29.91 in SSW 2.6 mph 4.6 mph 64 % 0.00 in 9.0 W/m2 CLR
20:12 82.2 °F 69.3 °F 29.91 in Calm   4.6 mph 65 % 0.00 in 5.0 W/m2 CLR
20:17 82.1 °F 69.2 °F 29.91 in SSW 0.9 mph 4.6 mph 65 % 0.00 in 0.0 W/m2 CLR
20:22 81.8 °F 69.3 °F 29.91 in Calm   3.5 mph 66 % 0.00 in 0.0 W/m2 CLR
20:27 81.7 °F 69.2 °F 29.91 in SSW 2.1 mph 3.5 mph 66 % 0.00 in 0.0 W/m2 CLR
20:32 81.4 °F 69.4 °F 29.91 in SSW 1.1 mph 3.5 mph 67 % 0.00 in 0.0 W/m2 CLR
20:37 81.1 °F 69.5 °F 29.91 in Calm   3.5 mph 68 % 0.00 in 0.0 W/m2 CLR
20:42 80.9 °F 69.8 °F 29.91 in Calm   3.5 mph 69 % 0.00 in 0.0 W/m2 CLR
20:47 80.8 °F 70.1 °F 29.91 in Calm   3.5 mph 70 % 0.00 in 0.0 W/m2 CLR
20:52 80.7 °F 70.0 °F 29.92 in Calm   3.5 mph 70 % 0.00 in 0.0 W/m2 CLR
20:57 80.6 °F 70.3 °F 29.92 in Calm   3.5 mph 71 % 0.00 in 0.0 W/m2 CLR
21:02 80.5 °F 70.2 °F 29.92 in SSW 0.7 mph 3.5 mph 71 % 0.00 in 0.0 W/m2 SCT
21:07 80.3 °F 70.4 °F 29.92 in Calm   3.5 mph 72 % 0.00 in 0.0 W/m2 SCT
21:12 80.3 °F 70.4 °F 29.91 in SW 0.1 mph 3.5 mph 72 % 0.00 in 0.0 W/m2 SCT
21:17 80.1 °F 70.3 °F 29.92 in Calm   1.2 mph 72 % 0.00 in 0.0 W/m2 SCT
21:22 80.0 °F 70.6 °F 29.92 in Calm   1.2 mph 73 % 0.00 in 0.0 W/m2 SCT
21:27 80.0 °F 70.6 °F 29.92 in Calm   1.2 mph 73 % 0.00 in 0.0 W/m2 SCT
21:32 79.9 °F 70.5 °F 29.92 in Calm     73 % 0.00 in 0.0 W/m2 SCT
21:37 80.0 °F 71.4 °F 29.92 in Calm   3.5 mph 75 % 0.00 in 0.0 W/m2 SCT
21:42 79.8 °F 71.2 °F 29.92 in Calm   3.5 mph 75 % 0.00 in 0.0 W/m2 SCT
21:47 79.6 °F 71.0 °F 29.92 in WSW 0.1 mph 5.8 mph 75 % 0.00 in 0.0 W/m2 SCT
21:52 79.6 °F 71.0 °F 29.92 in Calm   5.8 mph 75 % 0.00 in 0.0 W/m2 SCT
21:57 79.6 °F 71.0 °F 29.92 in Calm   5.8 mph 75 % 0.00 in 0.0 W/m2 SCT
22:03 79.4 °F 70.8 °F 29.92 in Calm   4.6 mph 75 % 0.00 in 0.0 W/m2 CLR
22:08 79.3 °F 70.7 °F 29.92 in Calm   4.6 mph 75 % 0.00 in 0.0 W/m2 CLR
22:13 79.3 °F 70.7 °F 29.93 in Calm   3.5 mph 75 % 0.00 in 0.0 W/m2 CLR
22:18 79.1 °F 70.9 °F 29.93 in Calm   3.5 mph 76 % 0.00 in 0.0 W/m2 CLR
22:23 78.9 °F 70.7 °F 29.93 in SW 3.1 mph 6.9 mph 76 % 0.00 in 0.0 W/m2 CLR
22:28 78.8 °F 71.0 °F 29.93 in WSW 3.9 mph 8.1 mph 77 % 0.00 in 0.0 W/m2 CLR
22:33 78.8 °F 71.0 °F 29.93 in Calm   8.1 mph 77 % 0.00 in 0.0 W/m2 CLR
22:38 78.7 °F 70.9 °F 29.93 in WSW 2.3 mph 6.9 mph 77 % 0.00 in 0.0 W/m2 CLR
22:43 78.6 °F 70.8 °F 29.93 in SW 0.4 mph 6.9 mph 77 % 0.00 in 0.0 W/m2 CLR
22:48 78.5 °F 71.1 °F 29.92 in SSW 1.5 mph 6.9 mph 78 % 0.00 in 0.0 W/m2 CLR
22:53 78.3 °F 70.9 °F 29.92 in Calm   6.9 mph 78 % 0.00 in 0.0 W/m2 CLR
22:58 78.1 °F 71.1 °F 29.92 in SW 2.6 mph 6.9 mph 79 % 0.00 in 0.0 W/m2 CLR
23:03 78.0 °F 71.0 °F 29.91 in SSW 3.4 mph 6.9 mph 79 % 0.00 in 0.0 W/m2 FEW
23:08 77.8 °F 71.1 °F 29.91 in Calm   4.6 mph 80 % 0.00 in 0.0 W/m2 FEW
23:13 77.5 °F 70.8 °F 29.92 in SSW 1.7 mph 4.6 mph 80 % 0.00 in 0.0 W/m2 FEW
23:18 77.3 °F 71.0 °F 29.92 in SW 2.4 mph 4.6 mph 81 % 0.00 in 0.0 W/m2 FEW
23:24 77.1 °F 70.8 °F 29.92 in SW 2.8 mph 5.8 mph 81 % 0.00 in 0.0 W/m2 FEW
23:29 76.9 °F 70.6 °F 29.92 in WSW 1.6 mph 8.1 mph 81 % 0.00 in 0.0 W/m2 FEW
23:34 76.7 °F 70.8 °F 29.92 in Calm   8.1 mph 82 % 0.00 in 0.0 W/m2 FEW
23:39 76.6 °F 70.7 °F 29.92 in WSW 0.4 mph 6.9 mph 82 % 0.00 in 0.0 W/m2 FEW
23:44 76.5 °F 70.6 °F 29.92 in WSW 3.7 mph 5.8 mph 82 % 0.00 in 0.0 W/m2 FEW
23:49 76.4 °F 70.5 °F 29.91 in Calm   6.9 mph 82 % 0.00 in 0.0 W/m2 FEW
23:54 76.4 °F 70.5 °F 29.92 in Calm   6.9 mph 82 % 0.00 in 0.0 W/m2 FEW
23:59 76.3 °F 70.4 °F 29.92 in Calm   5.8 mph 82 % 0.00 in 0.0 W/m2 FEW
Air Products Campus Weather
Compliments of Weather Underground - 3.5 mb